sensor_id;sensor_type;location;lat;lon;timestamp;P1;durP1;ratioP1;P2;durP2;ratioP2
73456;SDS011;61691;53.072;6.582;2023-07-20T00:00:07;5.68;;;1.95;;
73456;SDS011;61691;53.072;6.582;2023-07-20T00:02:34;8.40;;;2.40;;
73456;SDS011;61691;53.072;6.582;2023-07-20T00:05:01;8.20;;;2.00;;
73456;SDS011;61691;53.072;6.582;2023-07-20T00:07:28;5.78;;;2.05;;
73456;SDS011;61691;53.072;6.582;2023-07-20T00:09:55;6.32;;;2.00;;
73456;SDS011;61691;53.072;6.582;2023-07-20T00:12:22;7.22;;;1.90;;
73456;SDS011;61691;53.072;6.582;2023-07-20T00:14:49;5.88;;;2.00;;
73456;SDS011;61691;53.072;6.582;2023-07-20T00:17:15;9.32;;;2.30;;
73456;SDS011;61691;53.072;6.582;2023-07-20T00:19:42;7.50;;;2.22;;
73456;SDS011;61691;53.072;6.582;2023-07-20T00:22:09;8.73;;;2.22;;
73456;SDS011;61691;53.072;6.582;2023-07-20T00:24:36;7.57;;;2.30;;
73456;SDS011;61691;53.072;6.582;2023-07-20T00:27:02;7.85;;;2.20;;
73456;SDS011;61691;53.072;6.582;2023-07-20T00:29:29;8.00;;;2.20;;
73456;SDS011;61691;53.072;6.582;2023-07-20T00:31:56;7.93;;;2.38;;
73456;SDS011;61691;53.072;6.582;2023-07-20T00:34:24;7.32;;;2.22;;
73456;SDS011;61691;53.072;6.582;2023-07-20T00:36:51;7.75;;;2.33;;
73456;SDS011;61691;53.072;6.582;2023-07-20T00:39:18;9.50;;;2.83;;
73456;SDS011;61691;53.072;6.582;2023-07-20T00:41:44;8.18;;;2.20;;
73456;SDS011;61691;53.072;6.582;2023-07-20T00:44:11;8.38;;;2.40;;
73456;SDS011;61691;53.072;6.582;2023-07-20T00:46:38;10.15;;;2.40;;
73456;SDS011;61691;53.072;6.582;2023-07-20T00:49:08;8.63;;;2.35;;
73456;SDS011;61691;53.072;6.582;2023-07-20T00:51:35;9.20;;;2.60;;
73456;SDS011;61691;53.072;6.582;2023-07-20T00:54:02;8.73;;;2.38;;
73456;SDS011;61691;53.072;6.582;2023-07-20T00:56:29;10.23;;;2.40;;
73456;SDS011;61691;53.072;6.582;2023-07-20T00:58:56;9.70;;;2.30;;
73456;SDS011;61691;53.072;6.582;2023-07-20T01:01:23;8.95;;;2.40;;
73456;SDS011;61691;53.072;6.582;2023-07-20T01:03:50;9.93;;;2.40;;
73456;SDS011;61691;53.072;6.582;2023-07-20T01:06:33;8.02;;;2.42;;
73456;SDS011;61691;53.072;6.582;2023-07-20T01:09:10;6.15;;;2.00;;
73456;SDS011;61691;53.072;6.582;2023-07-20T01:11:54;8.50;;;2.40;;
73456;SDS011;61691;53.072;6.582;2023-07-20T01:14:29;8.38;;;2.30;;
73456;SDS011;61691;53.072;6.582;2023-07-20T01:16:58;10.25;;;2.75;;
73456;SDS011;61691;53.072;6.582;2023-07-20T01:19:25;10.05;;;2.80;;
73456;SDS011;61691;53.072;6.582;2023-07-20T01:24:56;9.63;;;2.60;;
73456;SDS011;61691;53.072;6.582;2023-07-20T01:33:17;12.20;;;3.20;;
73456;SDS011;61691;53.072;6.582;2023-07-20T01:35:47;8.68;;;2.67;;
73456;SDS011;61691;53.072;6.582;2023-07-20T01:40:53;11.27;;;2.90;;
73456;SDS011;61691;53.072;6.582;2023-07-20T01:43:21;11.27;;;2.90;;
73456;SDS011;61691;53.072;6.582;2023-07-20T01:45:48;10.38;;;2.78;;
73456;SDS011;61691;53.072;6.582;2023-07-20T01:48:15;10.65;;;2.92;;
73456;SDS011;61691;53.072;6.582;2023-07-20T01:50:41;9.50;;;2.97;;
73456;SDS011;61691;53.072;6.582;2023-07-20T01:53:08;13.32;;;3.35;;
73456;SDS011;61691;53.072;6.582;2023-07-20T01:55:35;12.13;;;3.20;;
73456;SDS011;61691;53.072;6.582;2023-07-20T01:58:02;12.32;;;3.35;;
73456;SDS011;61691;53.072;6.582;2023-07-20T02:00:30;12.15;;;3.25;;
73456;SDS011;61691;53.072;6.582;2023-07-20T02:02:56;12.23;;;3.35;;
73456;SDS011;61691;53.072;6.582;2023-07-20T02:05:23;12.07;;;3.33;;
73456;SDS011;61691;53.072;6.582;2023-07-20T02:07:51;12.80;;;3.42;;
73456;SDS011;61691;53.072;6.582;2023-07-20T02:10:18;13.05;;;3.80;;
73456;SDS011;61691;53.072;6.582;2023-07-20T02:12:45;12.52;;;3.40;;
73456;SDS011;61691;53.072;6.582;2023-07-20T02:15:11;13.27;;;3.78;;
73456;SDS011;61691;53.072;6.582;2023-07-20T02:17:39;13.57;;;3.90;;
73456;SDS011;61691;53.072;6.582;2023-07-20T02:20:08;12.30;;;3.70;;
73456;SDS011;61691;53.072;6.582;2023-07-20T02:22:37;13.73;;;3.83;;
73456;SDS011;61691;53.072;6.582;2023-07-20T02:25:04;12.80;;;3.65;;
73456;SDS011;61691;53.072;6.582;2023-07-20T02:27:31;13.73;;;3.97;;
73456;SDS011;61691;53.072;6.582;2023-07-20T02:29:58;13.43;;;4.10;;
73456;SDS011;61691;53.072;6.582;2023-07-20T02:32:25;14.73;;;4.15;;
73456;SDS011;61691;53.072;6.582;2023-07-20T02:34:52;13.25;;;4.15;;
73456;SDS011;61691;53.072;6.582;2023-07-20T02:37:18;13.05;;;3.75;;
73456;SDS011;61691;53.072;6.582;2023-07-20T02:39:45;13.57;;;3.50;;
73456;SDS011;61691;53.072;6.582;2023-07-20T02:42:12;14.02;;;4.05;;
73456;SDS011;61691;53.072;6.582;2023-07-20T02:44:39;13.05;;;4.20;;
73456;SDS011;61691;53.072;6.582;2023-07-20T02:47:06;13.38;;;4.03;;
73456;SDS011;61691;53.072;6.582;2023-07-20T02:49:32;12.85;;;3.75;;
73456;SDS011;61691;53.072;6.582;2023-07-20T02:51:59;13.73;;;4.15;;
73456;SDS011;61691;53.072;6.582;2023-07-20T02:54:26;13.27;;;3.90;;
73456;SDS011;61691;53.072;6.582;2023-07-20T02:56:54;11.90;;;3.63;;
73456;SDS011;61691;53.072;6.582;2023-07-20T02:59:21;13.23;;;3.60;;
73456;SDS011;61691;53.072;6.582;2023-07-20T03:01:48;13.65;;;3.80;;
73456;SDS011;61691;53.072;6.582;2023-07-20T03:04:15;14.23;;;3.67;;
73456;SDS011;61691;53.072;6.582;2023-07-20T03:06:43;13.85;;;3.70;;
73456;SDS011;61691;53.072;6.582;2023-07-20T03:09:10;14.18;;;3.58;;
73456;SDS011;61691;53.072;6.582;2023-07-20T03:11:36;14.75;;;3.67;;
73456;SDS011;61691;53.072;6.582;2023-07-20T03:14:03;11.10;;;3.47;;
73456;SDS011;61691;53.072;6.582;2023-07-20T03:16:30;12.52;;;3.63;;
73456;SDS011;61691;53.072;6.582;2023-07-20T03:18:59;11.43;;;3.35;;
73456;SDS011;61691;53.072;6.582;2023-07-20T03:21:30;10.63;;;3.05;;
73456;SDS011;61691;53.072;6.582;2023-07-20T03:23:56;12.73;;;3.70;;
73456;SDS011;61691;53.072;6.582;2023-07-20T03:26:23;12.82;;;3.28;;
73456;SDS011;61691;53.072;6.582;2023-07-20T03:28:50;12.48;;;3.70;;
73456;SDS011;61691;53.072;6.582;2023-07-20T03:31:17;10.85;;;3.45;;
73456;SDS011;61691;53.072;6.582;2023-07-20T03:33:44;12.23;;;3.70;;
73456;SDS011;61691;53.072;6.582;2023-07-20T03:36:11;12.23;;;3.28;;
73456;SDS011;61691;53.072;6.582;2023-07-20T03:38:38;10.82;;;3.22;;
73456;SDS011;61691;53.072;6.582;2023-07-20T03:41:05;10.65;;;3.10;;
73456;SDS011;61691;53.072;6.582;2023-07-20T03:43:32;12.20;;;3.00;;
73456;SDS011;61691;53.072;6.582;2023-07-20T03:45:59;12.35;;;3.08;;
73456;SDS011;61691;53.072;6.582;2023-07-20T03:48:25;11.85;;;3.30;;
73456;SDS011;61691;53.072;6.582;2023-07-20T03:50:53;13.85;;;3.30;;
73456;SDS011;61691;53.072;6.582;2023-07-20T03:53:20;10.82;;;3.17;;
73456;SDS011;61691;53.072;6.582;2023-07-20T03:55:48;11.98;;;3.05;;
73456;SDS011;61691;53.072;6.582;2023-07-20T03:58:15;8.77;;;2.78;;
73456;SDS011;61691;53.072;6.582;2023-07-20T04:00:46;10.80;;;3.00;;
73456;SDS011;61691;53.072;6.582;2023-07-20T04:03:17;11.95;;;3.15;;
73456;SDS011;61691;53.072;6.582;2023-07-20T04:05:45;10.65;;;2.90;;
73456;SDS011;61691;53.072;6.582;2023-07-20T04:08:12;11.70;;;3.10;;
73456;SDS011;61691;53.072;6.582;2023-07-20T04:10:39;9.95;;;3.20;;
73456;SDS011;61691;53.072;6.582;2023-07-20T04:13:10;9.88;;;2.90;;
73456;SDS011;61691;53.072;6.582;2023-07-20T04:15:36;10.30;;;2.95;;
73456;SDS011;61691;53.072;6.582;2023-07-20T04:18:03;9.27;;;2.78;;
73456;SDS011;61691;53.072;6.582;2023-07-20T04:20:30;9.70;;;2.80;;
73456;SDS011;61691;53.072;6.582;2023-07-20T04:22:57;10.10;;;3.10;;
73456;SDS011;61691;53.072;6.582;2023-07-20T04:25:24;12.02;;;3.22;;
73456;SDS011;61691;53.072;6.582;2023-07-20T04:27:52;12.57;;;2.97;;
73456;SDS011;61691;53.072;6.582;2023-07-20T04:30:19;9.73;;;2.80;;
73456;SDS011;61691;53.072;6.582;2023-07-20T04:32:48;10.05;;;2.70;;
73456;SDS011;61691;53.072;6.582;2023-07-20T04:35:44;8.48;;;2.60;;
73456;SDS011;61691;53.072;6.582;2023-07-20T04:38:12;9.00;;;2.50;;
73456;SDS011;61691;53.072;6.582;2023-07-20T04:40:39;8.38;;;2.28;;
73456;SDS011;61691;53.072;6.582;2023-07-20T04:43:06;8.00;;;2.30;;
73456;SDS011;61691;53.072;6.582;2023-07-20T04:45:33;9.45;;;2.72;;
73456;SDS011;61691;53.072;6.582;2023-07-20T04:48:00;9.45;;;2.53;;
73456;SDS011;61691;53.072;6.582;2023-07-20T04:50:27;6.15;;;2.13;;
73456;SDS011;61691;53.072;6.582;2023-07-20T04:52:54;8.30;;;2.10;;
73456;SDS011;61691;53.072;6.582;2023-07-20T04:55:20;5.82;;;1.90;;
73456;SDS011;61691;53.072;6.582;2023-07-20T04:57:47;7.47;;;2.10;;
73456;SDS011;61691;53.072;6.582;2023-07-20T05:00:14;8.63;;;2.35;;
73456;SDS011;61691;53.072;6.582;2023-07-20T05:02:41;6.93;;;2.10;;
73456;SDS011;61691;53.072;6.582;2023-07-20T05:05:09;9.80;;;2.25;;
73456;SDS011;61691;53.072;6.582;2023-07-20T05:07:35;6.72;;;2.15;;
73456;SDS011;61691;53.072;6.582;2023-07-20T05:10:02;8.13;;;2.17;;
73456;SDS011;61691;53.072;6.582;2023-07-20T05:12:30;5.45;;;1.70;;
73456;SDS011;61691;53.072;6.582;2023-07-20T05:14:56;6.00;;;1.80;;
73456;SDS011;61691;53.072;6.582;2023-07-20T05:17:23;6.28;;;1.65;;
73456;SDS011;61691;53.072;6.582;2023-07-20T05:19:51;7.82;;;1.70;;
73456;SDS011;61691;53.072;6.582;2023-07-20T05:22:17;6.20;;;1.80;;
73456;SDS011;61691;53.072;6.582;2023-07-20T05:24:44;7.55;;;1.92;;
73456;SDS011;61691;53.072;6.582;2023-07-20T05:27:11;8.27;;;1.90;;
73456;SDS011;61691;53.072;6.582;2023-07-20T05:29:43;8.60;;;2.30;;
73456;SDS011;61691;53.072;6.582;2023-07-20T05:32:10;4.47;;;1.70;;
73456;SDS011;61691;53.072;6.582;2023-07-20T05:34:37;7.28;;;1.80;;
73456;SDS011;61691;53.072;6.582;2023-07-20T05:37:04;6.53;;;1.65;;
73456;SDS011;61691;53.072;6.582;2023-07-20T05:39:34;4.93;;;1.70;;
73456;SDS011;61691;53.072;6.582;2023-07-20T05:42:01;8.63;;;1.90;;
73456;SDS011;61691;53.072;6.582;2023-07-20T05:44:28;6.43;;;1.80;;
73456;SDS011;61691;53.072;6.582;2023-07-20T05:46:54;8.30;;;2.10;;
73456;SDS011;61691;53.072;6.582;2023-07-20T05:49:23;7.97;;;2.15;;
73456;SDS011;61691;53.072;6.582;2023-07-20T05:51:50;6.60;;;1.90;;
73456;SDS011;61691;53.072;6.582;2023-07-20T05:54:17;7.93;;;1.90;;
73456;SDS011;61691;53.072;6.582;2023-07-20T05:56:44;9.13;;;2.05;;
73456;SDS011;61691;53.072;6.582;2023-07-20T05:59:12;6.00;;;1.60;;
73456;SDS011;61691;53.072;6.582;2023-07-20T06:01:39;6.00;;;1.70;;
73456;SDS011;61691;53.072;6.582;2023-07-20T06:04:06;6.53;;;1.85;;
73456;SDS011;61691;53.072;6.582;2023-07-20T06:06:32;7.03;;;1.60;;
73456;SDS011;61691;53.072;6.582;2023-07-20T06:09:00;7.07;;;1.52;;
73456;SDS011;61691;53.072;6.582;2023-07-20T06:11:30;10.10;;;2.08;;
73456;SDS011;61691;53.072;6.582;2023-07-20T06:13:57;10.52;;;1.70;;
73456;SDS011;61691;53.072;6.582;2023-07-20T06:16:24;8.20;;;1.60;;
73456;SDS011;61691;53.072;6.582;2023-07-20T06:18:51;7.57;;;2.00;;
73456;SDS011;61691;53.072;6.582;2023-07-20T06:21:18;6.70;;;1.30;;
73456;SDS011;61691;53.072;6.582;2023-07-20T06:23:45;6.93;;;1.50;;
73456;SDS011;61691;53.072;6.582;2023-07-20T06:26:12;5.63;;;1.42;;
73456;SDS011;61691;53.072;6.582;2023-07-20T06:28:39;6.57;;;1.27;;
73456;SDS011;61691;53.072;6.582;2023-07-20T06:31:06;5.68;;;1.20;;
73456;SDS011;61691;53.072;6.582;2023-07-20T06:33:32;5.45;;;1.30;;
73456;SDS011;61691;53.072;6.582;2023-07-20T06:36:01;3.50;;;1.30;;
73456;SDS011;61691;53.072;6.582;2023-07-20T06:38:28;4.63;;;1.30;;
73456;SDS011;61691;53.072;6.582;2023-07-20T06:40:57;4.53;;;1.20;;
73456;SDS011;61691;53.072;6.582;2023-07-20T06:43:44;4.07;;;1.40;;
73456;SDS011;61691;53.072;6.582;2023-07-20T06:46:15;4.97;;;1.10;;
73456;SDS011;61691;53.072;6.582;2023-07-20T06:48:42;5.75;;;1.20;;
73456;SDS011;61691;53.072;6.582;2023-07-20T06:51:11;4.90;;;1.23;;
73456;SDS011;61691;53.072;6.582;2023-07-20T06:53:38;4.55;;;1.17;;
73456;SDS011;61691;53.072;6.582;2023-07-20T06:56:05;6.22;;;1.20;;
73456;SDS011;61691;53.072;6.582;2023-07-20T06:58:32;5.22;;;1.30;;
73456;SDS011;61691;53.072;6.582;2023-07-20T07:00:59;9.45;;;1.50;;
73456;SDS011;61691;53.072;6.582;2023-07-20T07:03:30;4.05;;;1.00;;
73456;SDS011;61691;53.072;6.582;2023-07-20T07:06:02;6.85;;;1.17;;
73456;SDS011;61691;53.072;6.582;2023-07-20T07:08:29;7.45;;;1.38;;
73456;SDS011;61691;53.072;6.582;2023-07-20T07:10:56;4.30;;;1.20;;
73456;SDS011;61691;53.072;6.582;2023-07-20T07:13:23;5.45;;;0.98;;
73456;SDS011;61691;53.072;6.582;2023-07-20T07:15:51;4.82;;;1.20;;
73456;SDS011;61691;53.072;6.582;2023-07-20T07:18:18;10.85;;;1.60;;
73456;SDS011;61691;53.072;6.582;2023-07-20T07:20:50;8.25;;;1.40;;
73456;SDS011;61691;53.072;6.582;2023-07-20T07:23:18;7.22;;;1.48;;
73456;SDS011;61691;53.072;6.582;2023-07-20T07:25:45;7.07;;;1.30;;
73456;SDS011;61691;53.072;6.582;2023-07-20T07:28:12;6.05;;;1.50;;
73456;SDS011;61691;53.072;6.582;2023-07-20T07:30:39;8.05;;;1.80;;
73456;SDS011;61691;53.072;6.582;2023-07-20T07:33:06;11.63;;;1.80;;
73456;SDS011;61691;53.072;6.582;2023-07-20T07:35:33;4.80;;;1.40;;
73456;SDS011;61691;53.072;6.582;2023-07-20T07:38:00;7.97;;;1.65;;
73456;SDS011;61691;53.072;6.582;2023-07-20T07:40:44;9.10;;;1.42;;
73456;SDS011;61691;53.072;6.582;2023-07-20T07:43:11;7.45;;;1.70;;
73456;SDS011;61691;53.072;6.582;2023-07-20T07:45:40;9.13;;;1.67;;
73456;SDS011;61691;53.072;6.582;2023-07-20T07:48:07;9.38;;;1.65;;
73456;SDS011;61691;53.072;6.582;2023-07-20T07:50:34;7.47;;;1.67;;
73456;SDS011;61691;53.072;6.582;2023-07-20T07:53:01;6.95;;;1.52;;
73456;SDS011;61691;53.072;6.582;2023-07-20T07:55:29;6.88;;;1.38;;
73456;SDS011;61691;53.072;6.582;2023-07-20T07:57:56;13.70;;;1.88;;
73456;SDS011;61691;53.072;6.582;2023-07-20T08:00:23;6.72;;;1.70;;
73456;SDS011;61691;53.072;6.582;2023-07-20T08:02:50;7.22;;;1.60;;
73456;SDS011;61691;53.072;6.582;2023-07-20T08:05:17;7.38;;;1.60;;
73456;SDS011;61691;53.072;6.582;2023-07-20T08:07:44;8.73;;;1.63;;
73456;SDS011;61691;53.072;6.582;2023-07-20T08:10:11;8.50;;;1.70;;
73456;SDS011;61691;53.072;6.582;2023-07-20T08:12:38;9.93;;;1.67;;
73456;SDS011;61691;53.072;6.582;2023-07-20T08:15:05;9.13;;;2.28;;
73456;SDS011;61691;53.072;6.582;2023-07-20T08:17:32;11.88;;;1.77;;
73456;SDS011;61691;53.072;6.582;2023-07-20T08:20:00;12.70;;;1.83;;
73456;SDS011;61691;53.072;6.582;2023-07-20T08:22:27;6.57;;;1.70;;
73456;SDS011;61691;53.072;6.582;2023-07-20T08:24:53;11.18;;;1.83;;
73456;SDS011;61691;53.072;6.582;2023-07-20T08:27:20;11.55;;;2.00;;
73456;SDS011;61691;53.072;6.582;2023-07-20T08:29:47;6.65;;;1.42;;
73456;SDS011;61691;53.072;6.582;2023-07-20T08:32:14;6.97;;;1.73;;
73456;SDS011;61691;53.072;6.582;2023-07-20T08:34:41;9.35;;;1.70;;
73456;SDS011;61691;53.072;6.582;2023-07-20T08:37:08;7.32;;;2.05;;
73456;SDS011;61691;53.072;6.582;2023-07-20T08:39:36;8.88;;;1.88;;
73456;SDS011;61691;53.072;6.582;2023-07-20T08:42:03;8.18;;;1.67;;
73456;SDS011;61691;53.072;6.582;2023-07-20T08:44:32;9.15;;;1.90;;
73456;SDS011;61691;53.072;6.582;2023-07-20T08:47:00;8.45;;;2.40;;
73456;SDS011;61691;53.072;6.582;2023-07-20T08:49:31;11.02;;;1.92;;
73456;SDS011;61691;53.072;6.582;2023-07-20T08:51:59;9.07;;;1.90;;
73456;SDS011;61691;53.072;6.582;2023-07-20T08:54:29;14.98;;;2.30;;
73456;SDS011;61691;53.072;6.582;2023-07-20T08:57:02;12.23;;;2.40;;
73456;SDS011;61691;53.072;6.582;2023-07-20T08:59:31;14.40;;;2.17;;
73456;SDS011;61691;53.072;6.582;2023-07-20T09:01:59;10.30;;;2.10;;
73456;SDS011;61691;53.072;6.582;2023-07-20T09:04:26;11.70;;;2.20;;
73456;SDS011;61691;53.072;6.582;2023-07-20T09:06:53;9.82;;;2.13;;
73456;SDS011;61691;53.072;6.582;2023-07-20T09:09:21;8.40;;;2.00;;
73456;SDS011;61691;53.072;6.582;2023-07-20T09:11:48;11.68;;;2.10;;
73456;SDS011;61691;53.072;6.582;2023-07-20T09:14:16;8.73;;;1.92;;
73456;SDS011;61691;53.072;6.582;2023-07-20T09:16:47;10.02;;;1.90;;
73456;SDS011;61691;53.072;6.582;2023-07-20T09:19:16;8.38;;;1.88;;
73456;SDS011;61691;53.072;6.582;2023-07-20T09:21:46;10.38;;;2.28;;
73456;SDS011;61691;53.072;6.582;2023-07-20T09:24:14;15.32;;;2.65;;
73456;SDS011;61691;53.072;6.582;2023-07-20T09:26:44;13.75;;;2.00;;
73456;SDS011;61691;53.072;6.582;2023-07-20T09:29:14;10.13;;;2.10;;
73456;SDS011;61691;53.072;6.582;2023-07-20T09:31:57;11.80;;;1.92;;
73456;SDS011;61691;53.072;6.582;2023-07-20T09:34:31;8.05;;;1.85;;
73456;SDS011;61691;53.072;6.582;2023-07-20T09:37:01;11.07;;;1.90;;
73456;SDS011;61691;53.072;6.582;2023-07-20T09:39:29;8.95;;;1.70;;
73456;SDS011;61691;53.072;6.582;2023-07-20T09:41:59;12.07;;;2.35;;
73456;SDS011;61691;53.072;6.582;2023-07-20T09:44:30;14.57;;;2.25;;
73456;SDS011;61691;53.072;6.582;2023-07-20T09:47:02;10.43;;;2.00;;
73456;SDS011;61691;53.072;6.582;2023-07-20T09:49:31;9.85;;;1.90;;
73456;SDS011;61691;53.072;6.582;2023-07-20T09:52:18;9.73;;;1.70;;
73456;SDS011;61691;53.072;6.582;2023-07-20T09:54:49;7.57;;;1.67;;
73456;SDS011;61691;53.072;6.582;2023-07-20T09:57:16;8.10;;;1.80;;
73456;SDS011;61691;53.072;6.582;2023-07-20T09:59:43;9.55;;;1.70;;
73456;SDS011;61691;53.072;6.582;2023-07-20T10:02:18;8.57;;;1.58;;
73456;SDS011;61691;53.072;6.582;2023-07-20T10:04:52;7.97;;;1.60;;
73456;SDS011;61691;53.072;6.582;2023-07-20T10:07:22;8.40;;;1.70;;
73456;SDS011;61691;53.072;6.582;2023-07-20T10:09:53;6.63;;;1.50;;
73456;SDS011;61691;53.072;6.582;2023-07-20T10:12:23;6.88;;;1.63;;
73456;SDS011;61691;53.072;6.582;2023-07-20T10:14:56;7.15;;;1.60;;
73456;SDS011;61691;53.072;6.582;2023-07-20T10:17:35;6.43;;;1.42;;
73456;SDS011;61691;53.072;6.582;2023-07-20T10:20:06;9.00;;;1.60;;
73456;SDS011;61691;53.072;6.582;2023-07-20T10:22:36;10.43;;;1.67;;
73456;SDS011;61691;53.072;6.582;2023-07-20T10:25:07;7.38;;;1.55;;
73456;SDS011;61691;53.072;6.582;2023-07-20T10:27:35;7.43;;;1.58;;
73456;SDS011;61691;53.072;6.582;2023-07-20T10:30:03;8.88;;;1.65;;
73456;SDS011;61691;53.072;6.582;2023-07-20T10:32:31;10.43;;;2.08;;
73456;SDS011;61691;53.072;6.582;2023-07-20T10:34:59;8.90;;;1.88;;
73456;SDS011;61691;53.072;6.582;2023-07-20T10:42:57;8.27;;;1.58;;
73456;SDS011;61691;53.072;6.582;2023-07-20T10:45:42;8.27;;;1.60;;
73456;SDS011;61691;53.072;6.582;2023-07-20T10:48:16;5.32;;;1.30;;
73456;SDS011;61691;53.072;6.582;2023-07-20T10:50:46;7.32;;;1.50;;
73456;SDS011;61691;53.072;6.582;2023-07-20T10:53:35;8.40;;;1.45;;
73456;SDS011;61691;53.072;6.582;2023-07-20T10:56:12;9.55;;;2.00;;
73456;SDS011;61691;53.072;6.582;2023-07-20T10:58:40;9.20;;;1.50;;
73456;SDS011;61691;53.072;6.582;2023-07-20T11:01:08;8.05;;;1.55;;
73456;SDS011;61691;53.072;6.582;2023-07-20T11:03:42;12.93;;;1.48;;
73456;SDS011;61691;53.072;6.582;2023-07-20T11:06:32;8.68;;;1.63;;
73456;SDS011;61691;53.072;6.582;2023-07-20T11:09:04;10.20;;;1.67;;
73456;SDS011;61691;53.072;6.582;2023-07-20T11:11:35;8.98;;;1.40;;
73456;SDS011;61691;53.072;6.582;2023-07-20T11:14:04;7.47;;;1.60;;
73456;SDS011;61691;53.072;6.582;2023-07-20T11:19:03;8.02;;;1.42;;
73456;SDS011;61691;53.072;6.582;2023-07-20T11:21:37;7.55;;;1.40;;
73456;SDS011;61691;53.072;6.582;2023-07-20T11:24:21;4.75;;;1.35;;
73456;SDS011;61691;53.072;6.582;2023-07-20T11:26:49;5.47;;;1.38;;
73456;SDS011;61691;53.072;6.582;2023-07-20T11:29:18;5.53;;;1.23;;
73456;SDS011;61691;53.072;6.582;2023-07-20T11:31:57;7.70;;;1.20;;
73456;SDS011;61691;53.072;6.582;2023-07-20T11:34:31;5.20;;;1.17;;
73456;SDS011;61691;53.072;6.582;2023-07-20T11:36:59;4.72;;;1.30;;
73456;SDS011;61691;53.072;6.582;2023-07-20T11:41:56;7.93;;;1.85;;
73456;SDS011;61691;53.072;6.582;2023-07-20T11:44:24;7.88;;;1.70;;
73456;SDS011;61691;53.072;6.582;2023-07-20T11:47:04;6.75;;;1.58;;
73456;SDS011;61691;53.072;6.582;2023-07-20T11:49:36;8.00;;;1.50;;
73456;SDS011;61691;53.072;6.582;2023-07-20T11:52:07;5.00;;;1.40;;
73456;SDS011;61691;53.072;6.582;2023-07-20T11:54:43;7.60;;;1.50;;
73456;SDS011;61691;53.072;6.582;2023-07-20T11:57:18;8.13;;;1.77;;
73456;SDS011;61691;53.072;6.582;2023-07-20T12:02:27;5.90;;;1.38;;
73456;SDS011;61691;53.072;6.582;2023-07-20T12:04:55;6.65;;;2.05;;
73456;SDS011;61691;53.072;6.582;2023-07-20T12:07:23;6.78;;;1.38;;
73456;SDS011;61691;53.072;6.582;2023-07-20T12:12:49;7.57;;;1.52;;
73456;SDS011;61691;53.072;6.582;2023-07-20T12:15:16;8.95;;;1.75;;
73456;SDS011;61691;53.072;6.582;2023-07-20T12:17:46;6.40;;;1.65;;
73456;SDS011;61691;53.072;6.582;2023-07-20T12:20:33;9.07;;;1.70;;
73456;SDS011;61691;53.072;6.582;2023-07-20T12:23:03;6.05;;;1.60;;
73456;SDS011;61691;53.072;6.582;2023-07-20T12:25:41;9.32;;;1.77;;
73456;SDS011;61691;53.072;6.582;2023-07-20T12:28:12;8.65;;;1.60;;
73456;SDS011;61691;53.072;6.582;2023-07-20T12:30:41;7.38;;;1.70;;
73456;SDS011;61691;53.072;6.582;2023-07-20T12:33:10;7.00;;;1.42;;
73456;SDS011;61691;53.072;6.582;2023-07-20T12:35:44;7.72;;;2.17;;
73456;SDS011;61691;53.072;6.582;2023-07-20T12:38:10;9.20;;;2.25;;
73456;SDS011;61691;53.072;6.582;2023-07-20T12:40:37;9.32;;;1.70;;
73456;SDS011;61691;53.072;6.582;2023-07-20T12:43:04;8.68;;;1.60;;
73456;SDS011;61691;53.072;6.582;2023-07-20T12:45:33;10.55;;;1.65;;
73456;SDS011;61691;53.072;6.582;2023-07-20T12:48:00;7.47;;;1.58;;
73456;SDS011;61691;53.072;6.582;2023-07-20T12:50:27;8.35;;;1.58;;
73456;SDS011;61691;53.072;6.582;2023-07-20T12:52:54;7.60;;;1.45;;
73456;SDS011;61691;53.072;6.582;2023-07-20T12:55:20;6.05;;;1.80;;
73456;SDS011;61691;53.072;6.582;2023-07-20T12:57:47;4.55;;;1.30;;
73456;SDS011;61691;53.072;6.582;2023-07-20T13:00:14;6.88;;;1.40;;
73456;SDS011;61691;53.072;6.582;2023-07-20T13:02:42;7.15;;;1.50;;
73456;SDS011;61691;53.072;6.582;2023-07-20T13:05:10;5.43;;;1.25;;
73456;SDS011;61691;53.072;6.582;2023-07-20T13:07:37;8.73;;;1.70;;
73456;SDS011;61691;53.072;6.582;2023-07-20T13:10:09;9.20;;;1.80;;
73456;SDS011;61691;53.072;6.582;2023-07-20T13:12:37;5.18;;;1.40;;
73456;SDS011;61691;53.072;6.582;2023-07-20T13:15:05;6.43;;;1.42;;
73456;SDS011;61691;53.072;6.582;2023-07-20T13:17:34;6.38;;;1.58;;
73456;SDS011;61691;53.072;6.582;2023-07-20T13:20:02;9.55;;;1.67;;
73456;SDS011;61691;53.072;6.582;2023-07-20T13:22:34;5.97;;;1.42;;
73456;SDS011;61691;53.072;6.582;2023-07-20T13:25:01;3.33;;;1.20;;
73456;SDS011;61691;53.072;6.582;2023-07-20T13:27:28;8.60;;;1.63;;
73456;SDS011;61691;53.072;6.582;2023-07-20T13:29:58;5.20;;;1.43;;
73456;SDS011;61691;53.072;6.582;2023-07-20T13:32:29;7.32;;;1.50;;
73456;SDS011;61691;53.072;6.582;2023-07-20T13:37:26;7.85;;;1.80;;
73456;SDS011;61691;53.072;6.582;2023-07-20T13:39:53;5.93;;;1.58;;
73456;SDS011;61691;53.072;6.582;2023-07-20T13:42:22;6.85;;;1.55;;
73456;SDS011;61691;53.072;6.582;2023-07-20T13:44:49;6.78;;;1.67;;
73456;SDS011;61691;53.072;6.582;2023-07-20T13:47:16;6.93;;;1.60;;
73456;SDS011;61691;53.072;6.582;2023-07-20T13:49:46;7.93;;;1.70;;
73456;SDS011;61691;53.072;6.582;2023-07-20T13:52:14;10.80;;;2.10;;
73456;SDS011;61691;53.072;6.582;2023-07-20T13:54:44;10.63;;;1.80;;
73456;SDS011;61691;53.072;6.582;2023-07-20T13:57:13;7.10;;;1.52;;
73456;SDS011;61691;53.072;6.582;2023-07-20T13:59:41;6.60;;;1.58;;
73456;SDS011;61691;53.072;6.582;2023-07-20T14:02:09;9.73;;;1.60;;
73456;SDS011;61691;53.072;6.582;2023-07-20T14:04:39;8.55;;;1.50;;
73456;SDS011;61691;53.072;6.582;2023-07-20T14:07:07;8.77;;;2.13;;
73456;SDS011;61691;53.072;6.582;2023-07-20T14:09:34;5.85;;;1.67;;
73456;SDS011;61691;53.072;6.582;2023-07-20T14:12:01;7.45;;;1.70;;
73456;SDS011;61691;53.072;6.582;2023-07-20T14:14:31;7.83;;;1.80;;
73456;SDS011;61691;53.072;6.582;2023-07-20T14:16:58;9.05;;;1.60;;
73456;SDS011;61691;53.072;6.582;2023-07-20T14:19:25;7.47;;;1.70;;
73456;SDS011;61691;53.072;6.582;2023-07-20T14:21:52;10.73;;;1.90;;
73456;SDS011;61691;53.072;6.582;2023-07-20T14:24:19;7.60;;;1.65;;
73456;SDS011;61691;53.072;6.582;2023-07-20T14:26:46;7.55;;;1.90;;
73456;SDS011;61691;53.072;6.582;2023-07-20T14:29:17;6.10;;;1.60;;
73456;SDS011;61691;53.072;6.582;2023-07-20T14:31:45;9.85;;;1.70;;
73456;SDS011;61691;53.072;6.582;2023-07-20T14:34:19;6.43;;;1.55;;
73456;SDS011;61691;53.072;6.582;2023-07-20T14:36:46;6.60;;;1.52;;
73456;SDS011;61691;53.072;6.582;2023-07-20T14:39:12;8.95;;;1.90;;
73456;SDS011;61691;53.072;6.582;2023-07-20T14:41:40;5.82;;;1.48;;
73456;SDS011;61691;53.072;6.582;2023-07-20T14:44:06;6.75;;;1.42;;
73456;SDS011;61691;53.072;6.582;2023-07-20T14:46:34;6.30;;;1.65;;
73456;SDS011;61691;53.072;6.582;2023-07-20T14:49:01;7.05;;;1.60;;
73456;SDS011;61691;53.072;6.582;2023-07-20T14:51:29;7.22;;;1.50;;
73456;SDS011;61691;53.072;6.582;2023-07-20T14:54:02;4.65;;;1.20;;
73456;SDS011;61691;53.072;6.582;2023-07-20T14:56:29;8.45;;;1.70;;
73456;SDS011;61691;53.072;6.582;2023-07-20T14:58:56;13.20;;;1.77;;
73456;SDS011;61691;53.072;6.582;2023-07-20T15:01:24;6.88;;;1.63;;
73456;SDS011;61691;53.072;6.582;2023-07-20T15:03:51;9.18;;;1.90;;
73456;SDS011;61691;53.072;6.582;2023-07-20T15:06:23;7.72;;;1.85;;
73456;SDS011;61691;53.072;6.582;2023-07-20T15:08:51;5.78;;;1.50;;
73456;SDS011;61691;53.072;6.582;2023-07-20T15:11:17;4.93;;;1.42;;
73456;SDS011;61691;53.072;6.582;2023-07-20T15:13:44;11.18;;;2.35;;
73456;SDS011;61691;53.072;6.582;2023-07-20T15:16:11;7.25;;;1.73;;
73456;SDS011;61691;53.072;6.582;2023-07-20T15:18:38;7.05;;;1.67;;
73456;SDS011;61691;53.072;6.582;2023-07-20T15:21:14;6.65;;;1.50;;